sensor_id;sensor_type;location;lat;lon;timestamp;P1;durP1;ratioP1;P2;durP2;ratioP2
46563;SDS011;32291;52.010;4.446;2023-03-01T00:00:02;20.95;;;18.70;;
46563;SDS011;32291;52.010;4.446;2023-03-01T00:01:08;19.95;;;17.88;;
46563;SDS011;32291;52.010;4.446;2023-03-01T00:02:16;20.52;;;17.85;;
46563;SDS011;32291;52.010;4.446;2023-03-01T00:03:18;19.77;;;17.77;;
46563;SDS011;32291;52.010;4.446;2023-03-01T00:04:20;19.65;;;17.65;;
46563;SDS011;32291;52.010;4.446;2023-03-01T00:05:22;19.50;;;17.30;;
46563;SDS011;32291;52.010;4.446;2023-03-01T00:06:24;21.65;;;18.25;;
46563;SDS011;32291;52.010;4.446;2023-03-01T00:07:27;20.67;;;18.60;;
46563;SDS011;32291;52.010;4.446;2023-03-01T00:08:29;22.38;;;18.48;;
46563;SDS011;32291;52.010;4.446;2023-03-01T00:09:31;22.20;;;19.20;;
46563;SDS011;32291;52.010;4.446;2023-03-01T00:10:33;22.80;;;18.63;;
46563;SDS011;32291;52.010;4.446;2023-03-01T00:11:34;20.17;;;17.95;;
46563;SDS011;32291;52.010;4.446;2023-03-01T00:12:36;23.00;;;20.20;;
46563;SDS011;32291;52.010;4.446;2023-03-01T00:13:38;22.00;;;18.67;;
46563;SDS011;32291;52.010;4.446;2023-03-01T00:14:40;23.45;;;19.35;;
46563;SDS011;32291;52.010;4.446;2023-03-01T00:15:42;21.00;;;18.77;;
46563;SDS011;32291;52.010;4.446;2023-03-01T00:16:44;22.35;;;20.00;;
46563;SDS011;32291;52.010;4.446;2023-03-01T00:17:47;22.77;;;20.35;;
46563;SDS011;32291;52.010;4.446;2023-03-01T00:18:49;22.77;;;19.83;;
46563;SDS011;32291;52.010;4.446;2023-03-01T00:19:51;23.45;;;20.95;;
46563;SDS011;32291;52.010;4.446;2023-03-01T00:20:53;23.75;;;21.25;;
46563;SDS011;32291;52.010;4.446;2023-03-01T00:21:56;21.25;;;18.98;;
46563;SDS011;32291;52.010;4.446;2023-03-01T00:22:58;23.67;;;19.65;;
46563;SDS011;32291;52.010;4.446;2023-03-01T00:24:01;23.70;;;20.20;;
46563;SDS011;32291;52.010;4.446;2023-03-01T00:25:04;21.05;;;18.00;;
46563;SDS011;32291;52.010;4.446;2023-03-01T00:26:06;25.40;;;19.02;;
46563;SDS011;32291;52.010;4.446;2023-03-01T00:27:11;22.08;;;19.77;;
46563;SDS011;32291;52.010;4.446;2023-03-01T00:28:13;24.60;;;19.92;;
46563;SDS011;32291;52.010;4.446;2023-03-01T00:29:15;23.80;;;20.40;;
46563;SDS011;32291;52.010;4.446;2023-03-01T00:30:17;25.05;;;20.20;;
46563;SDS011;32291;52.010;4.446;2023-03-01T00:31:19;24.58;;;19.83;;
46563;SDS011;32291;52.010;4.446;2023-03-01T00:32:27;24.30;;;20.25;;
46563;SDS011;32291;52.010;4.446;2023-03-01T00:33:29;25.58;;;20.95;;
46563;SDS011;32291;52.010;4.446;2023-03-01T00:34:30;22.92;;;20.35;;
46563;SDS011;32291;52.010;4.446;2023-03-01T00:35:32;23.27;;;19.88;;
46563;SDS011;32291;52.010;4.446;2023-03-01T00:36:35;23.45;;;20.90;;
46563;SDS011;32291;52.010;4.446;2023-03-01T00:37:38;23.27;;;20.58;;
46563;SDS011;32291;52.010;4.446;2023-03-01T00:38:42;23.88;;;20.77;;
46563;SDS011;32291;52.010;4.446;2023-03-01T00:39:46;23.02;;;20.70;;
46563;SDS011;32291;52.010;4.446;2023-03-01T00:40:49;24.90;;;21.13;;
46563;SDS011;32291;52.010;4.446;2023-03-01T00:41:50;26.65;;;21.15;;
46563;SDS011;32291;52.010;4.446;2023-03-01T00:42:52;29.52;;;21.23;;
46563;SDS011;32291;52.010;4.446;2023-03-01T00:43:54;26.95;;;21.45;;
46563;SDS011;32291;52.010;4.446;2023-03-01T00:44:56;22.73;;;19.88;;
46563;SDS011;32291;52.010;4.446;2023-03-01T00:46:00;23.35;;;19.92;;
46563;SDS011;32291;52.010;4.446;2023-03-01T00:47:07;23.42;;;20.30;;
46563;SDS011;32291;52.010;4.446;2023-03-01T00:48:09;23.42;;;20.15;;
46563;SDS011;32291;52.010;4.446;2023-03-01T00:49:10;23.55;;;20.38;;
46563;SDS011;32291;52.010;4.446;2023-03-01T00:50:13;21.33;;;19.10;;
46563;SDS011;32291;52.010;4.446;2023-03-01T00:51:16;21.83;;;19.52;;
46563;SDS011;32291;52.010;4.446;2023-03-01T00:52:22;24.55;;;19.42;;
46563;SDS011;32291;52.010;4.446;2023-03-01T00:53:24;22.20;;;19.80;;
46563;SDS011;32291;52.010;4.446;2023-03-01T00:54:25;24.10;;;19.98;;
46563;SDS011;32291;52.010;4.446;2023-03-01T00:55:27;23.75;;;20.75;;
46563;SDS011;32291;52.010;4.446;2023-03-01T00:56:29;24.13;;;19.52;;
46563;SDS011;32291;52.010;4.446;2023-03-01T00:57:31;26.25;;;21.33;;
46563;SDS011;32291;52.010;4.446;2023-03-01T00:58:34;23.83;;;21.20;;
46563;SDS011;32291;52.010;4.446;2023-03-01T00:59:37;26.30;;;21.98;;
46563;SDS011;32291;52.010;4.446;2023-03-01T01:00:39;25.25;;;20.50;;
46563;SDS011;32291;52.010;4.446;2023-03-01T01:01:40;25.30;;;21.42;;
46563;SDS011;32291;52.010;4.446;2023-03-01T01:02:42;28.58;;;22.38;;
46563;SDS011;32291;52.010;4.446;2023-03-01T01:03:45;27.05;;;22.58;;
46563;SDS011;32291;52.010;4.446;2023-03-01T01:04:47;24.88;;;22.15;;
46563;SDS011;32291;52.010;4.446;2023-03-01T01:05:50;27.05;;;22.83;;
46563;SDS011;32291;52.010;4.446;2023-03-01T01:06:54;29.65;;;23.67;;
46563;SDS011;32291;52.010;4.446;2023-03-01T01:07:56;31.17;;;23.48;;
46563;SDS011;32291;52.010;4.446;2023-03-01T01:08:58;29.13;;;23.90;;
46563;SDS011;32291;52.010;4.446;2023-03-01T01:10:00;29.83;;;22.55;;
46563;SDS011;32291;52.010;4.446;2023-03-01T01:11:03;32.30;;;24.83;;
46563;SDS011;32291;52.010;4.446;2023-03-01T01:12:05;30.30;;;24.55;;
46563;SDS011;32291;52.010;4.446;2023-03-01T01:13:07;32.65;;;23.67;;
46563;SDS011;32291;52.010;4.446;2023-03-01T01:14:09;28.23;;;23.63;;
46563;SDS011;32291;52.010;4.446;2023-03-01T01:15:11;28.90;;;23.15;;
46563;SDS011;32291;52.010;4.446;2023-03-01T01:16:15;24.67;;;21.33;;
46563;SDS011;32291;52.010;4.446;2023-03-01T01:17:19;27.02;;;22.00;;
46563;SDS011;32291;52.010;4.446;2023-03-01T01:18:21;26.10;;;22.77;;
46563;SDS011;32291;52.010;4.446;2023-03-01T01:19:23;26.98;;;23.55;;
46563;SDS011;32291;52.010;4.446;2023-03-01T01:20:26;27.60;;;21.80;;
46563;SDS011;32291;52.010;4.446;2023-03-01T01:21:27;26.88;;;23.15;;
46563;SDS011;32291;52.010;4.446;2023-03-01T01:22:29;27.45;;;23.10;;
46563;SDS011;32291;52.010;4.446;2023-03-01T01:23:31;31.40;;;23.45;;
46563;SDS011;32291;52.010;4.446;2023-03-01T01:24:33;30.83;;;24.20;;
46563;SDS011;32291;52.010;4.446;2023-03-01T01:25:35;29.90;;;22.92;;
46563;SDS011;32291;52.010;4.446;2023-03-01T01:26:37;27.60;;;23.38;;
46563;SDS011;32291;52.010;4.446;2023-03-01T01:27:39;26.17;;;22.10;;
46563;SDS011;32291;52.010;4.446;2023-03-01T01:28:40;31.60;;;23.33;;
46563;SDS011;32291;52.010;4.446;2023-03-01T01:29:42;26.95;;;21.52;;
46563;SDS011;32291;52.010;4.446;2023-03-01T01:30:44;28.95;;;23.10;;
46563;SDS011;32291;52.010;4.446;2023-03-01T01:31:45;27.45;;;21.85;;
46563;SDS011;32291;52.010;4.446;2023-03-01T01:32:47;31.67;;;23.73;;
46563;SDS011;32291;52.010;4.446;2023-03-01T01:33:49;27.45;;;23.45;;
46563;SDS011;32291;52.010;4.446;2023-03-01T01:34:52;27.55;;;23.35;;
46563;SDS011;32291;52.010;4.446;2023-03-01T01:35:54;24.58;;;21.77;;
46563;SDS011;32291;52.010;4.446;2023-03-01T01:36:56;26.20;;;21.52;;
46563;SDS011;32291;52.010;4.446;2023-03-01T01:37:57;24.25;;;20.15;;
46563;SDS011;32291;52.010;4.446;2023-03-01T01:38:59;27.73;;;21.23;;
46563;SDS011;32291;52.010;4.446;2023-03-01T01:40:02;26.35;;;22.85;;
46563;SDS011;32291;52.010;4.446;2023-03-01T01:41:05;28.00;;;22.58;;
46563;SDS011;32291;52.010;4.446;2023-03-01T01:42:17;26.05;;;22.48;;
46563;SDS011;32291;52.010;4.446;2023-03-01T01:43:23;26.17;;;21.70;;
46563;SDS011;32291;52.010;4.446;2023-03-01T01:44:29;25.75;;;21.88;;
46563;SDS011;32291;52.010;4.446;2023-03-01T01:45:32;28.80;;;22.30;;
46563;SDS011;32291;52.010;4.446;2023-03-01T01:46:40;27.17;;;22.80;;
46563;SDS011;32291;52.010;4.446;2023-03-01T01:47:45;26.63;;;21.98;;
46563;SDS011;32291;52.010;4.446;2023-03-01T01:48:53;24.88;;;20.00;;
46563;SDS011;32291;52.010;4.446;2023-03-01T01:50:01;25.90;;;21.33;;
46563;SDS011;32291;52.010;4.446;2023-03-01T01:51:03;25.55;;;21.83;;
46563;SDS011;32291;52.010;4.446;2023-03-01T01:53:30;27.42;;;23.45;;
46563;SDS011;32291;52.010;4.446;2023-03-01T01:54:45;31.38;;;22.58;;
46563;SDS011;32291;52.010;4.446;2023-03-01T01:55:56;27.23;;;22.23;;
46563;SDS011;32291;52.010;4.446;2023-03-01T01:57:03;29.45;;;23.13;;
46563;SDS011;32291;52.010;4.446;2023-03-01T01:58:11;28.58;;;22.95;;
46563;SDS011;32291;52.010;4.446;2023-03-01T01:59:18;28.08;;;22.52;;
46563;SDS011;32291;52.010;4.446;2023-03-01T02:00:27;31.58;;;23.27;;
46563;SDS011;32291;52.010;4.446;2023-03-01T02:01:30;33.63;;;23.98;;
46563;SDS011;32291;52.010;4.446;2023-03-01T02:02:32;30.27;;;22.83;;
46563;SDS011;32291;52.010;4.446;2023-03-01T02:03:34;32.30;;;24.27;;
46563;SDS011;32291;52.010;4.446;2023-03-01T02:04:43;29.55;;;23.90;;
46563;SDS011;32291;52.010;4.446;2023-03-01T02:05:53;31.35;;;23.17;;
46563;SDS011;32291;52.010;4.446;2023-03-01T02:07:20;31.77;;;23.15;;
46563;SDS011;32291;52.010;4.446;2023-03-01T02:08:26;29.80;;;23.38;;
46563;SDS011;32291;52.010;4.446;2023-03-01T02:09:31;30.20;;;23.42;;
46563;SDS011;32291;52.010;4.446;2023-03-01T02:10:35;31.55;;;23.92;;
46563;SDS011;32291;52.010;4.446;2023-03-01T02:11:39;31.90;;;24.60;;
46563;SDS011;32291;52.010;4.446;2023-03-01T02:12:42;29.95;;;23.15;;
46563;SDS011;32291;52.010;4.446;2023-03-01T02:13:45;30.77;;;24.55;;
46563;SDS011;32291;52.010;4.446;2023-03-01T02:14:49;29.67;;;23.58;;
46563;SDS011;32291;52.010;4.446;2023-03-01T02:15:51;33.83;;;24.88;;
46563;SDS011;32291;52.010;4.446;2023-03-01T02:16:53;33.38;;;24.30;;
46563;SDS011;32291;52.010;4.446;2023-03-01T02:17:54;32.78;;;24.85;;
46563;SDS011;32291;52.010;4.446;2023-03-01T02:18:57;29.55;;;23.27;;
46563;SDS011;32291;52.010;4.446;2023-03-01T02:21:37;28.60;;;22.63;;
46563;SDS011;32291;52.010;4.446;2023-03-01T02:23:20;27.88;;;22.80;;
46563;SDS011;32291;52.010;4.446;2023-03-01T02:24:29;29.58;;;23.20;;
46563;SDS011;32291;52.010;4.446;2023-03-01T02:27:21;32.00;;;23.13;;
46563;SDS011;32291;52.010;4.446;2023-03-01T02:29:36;31.42;;;24.02;;
46563;SDS011;32291;52.010;4.446;2023-03-01T02:30:38;29.88;;;22.83;;
46563;SDS011;32291;52.010;4.446;2023-03-01T02:32:02;31.92;;;24.25;;
46563;SDS011;32291;52.010;4.446;2023-03-01T02:33:05;31.63;;;23.70;;
46563;SDS011;32291;52.010;4.446;2023-03-01T02:34:12;34.28;;;25.80;;
46563;SDS011;32291;52.010;4.446;2023-03-01T02:35:23;29.02;;;24.23;;
46563;SDS011;32291;52.010;4.446;2023-03-01T02:36:26;33.88;;;25.63;;
46563;SDS011;32291;52.010;4.446;2023-03-01T02:37:37;33.25;;;24.85;;
46563;SDS011;32291;52.010;4.446;2023-03-01T02:38:41;33.88;;;25.75;;
46563;SDS011;32291;52.010;4.446;2023-03-01T02:39:46;30.25;;;23.73;;
46563;SDS011;32291;52.010;4.446;2023-03-01T02:40:58;34.17;;;24.45;;
46563;SDS011;32291;52.010;4.446;2023-03-01T02:42:04;34.13;;;25.27;;
46563;SDS011;32291;52.010;4.446;2023-03-01T02:43:07;36.38;;;26.95;;
46563;SDS011;32291;52.010;4.446;2023-03-01T02:44:13;35.83;;;25.48;;
46563;SDS011;32291;52.010;4.446;2023-03-01T02:45:15;39.45;;;27.73;;
46563;SDS011;32291;52.010;4.446;2023-03-01T02:46:21;39.47;;;28.33;;
46563;SDS011;32291;52.010;4.446;2023-03-01T02:47:26;37.20;;;26.80;;
46563;SDS011;32291;52.010;4.446;2023-03-01T02:48:27;38.85;;;27.95;;
46563;SDS011;32291;52.010;4.446;2023-03-01T02:49:31;38.95;;;27.08;;
46563;SDS011;32291;52.010;4.446;2023-03-01T02:50:51;38.47;;;26.85;;
46563;SDS011;32291;52.010;4.446;2023-03-01T02:53:25;37.55;;;26.80;;
46563;SDS011;32291;52.010;4.446;2023-03-01T02:54:58;38.63;;;26.30;;
46563;SDS011;32291;52.010;4.446;2023-03-01T02:56:17;33.72;;;25.88;;
46563;SDS011;32291;52.010;4.446;2023-03-01T02:57:19;37.45;;;27.45;;
46563;SDS011;32291;52.010;4.446;2023-03-01T02:58:23;38.17;;;26.90;;
46563;SDS011;32291;52.010;4.446;2023-03-01T02:59:27;36.30;;;25.88;;
46563;SDS011;32291;52.010;4.446;2023-03-01T03:00:40;38.17;;;27.25;;
46563;SDS011;32291;52.010;4.446;2023-03-01T03:01:47;37.35;;;26.80;;
46563;SDS011;32291;52.010;4.446;2023-03-01T03:02:51;40.47;;;27.45;;
46563;SDS011;32291;52.010;4.446;2023-03-01T03:03:55;38.85;;;26.92;;
46563;SDS011;32291;52.010;4.446;2023-03-01T03:04:56;38.22;;;26.25;;
46563;SDS011;32291;52.010;4.446;2023-03-01T03:05:58;38.63;;;28.67;;
46563;SDS011;32291;52.010;4.446;2023-03-01T03:06:59;37.78;;;28.67;;
46563;SDS011;32291;52.010;4.446;2023-03-01T03:08:01;40.00;;;29.33;;
46563;SDS011;32291;52.010;4.446;2023-03-01T03:09:04;40.47;;;27.85;;
46563;SDS011;32291;52.010;4.446;2023-03-01T03:10:07;37.38;;;28.77;;
46563;SDS011;32291;52.010;4.446;2023-03-01T03:11:20;40.72;;;26.60;;
46563;SDS011;32291;52.010;4.446;2023-03-01T03:12:22;41.90;;;28.70;;
46563;SDS011;32291;52.010;4.446;2023-03-01T03:13:23;40.88;;;29.30;;
46563;SDS011;32291;52.010;4.446;2023-03-01T03:14:29;40.92;;;28.85;;
46563;SDS011;32291;52.010;4.446;2023-03-01T03:15:30;44.47;;;29.55;;
46563;SDS011;32291;52.010;4.446;2023-03-01T03:16:36;40.50;;;30.25;;
46563;SDS011;32291;52.010;4.446;2023-03-01T03:17:39;43.63;;;29.45;;
46563;SDS011;32291;52.010;4.446;2023-03-01T03:18:43;41.38;;;30.02;;
46563;SDS011;32291;52.010;4.446;2023-03-01T03:19:45;39.83;;;29.70;;
46563;SDS011;32291;52.010;4.446;2023-03-01T03:20:47;39.20;;;28.00;;
46563;SDS011;32291;52.010;4.446;2023-03-01T03:21:53;40.10;;;28.33;;
46563;SDS011;32291;52.010;4.446;2023-03-01T03:22:56;44.42;;;29.60;;
46563;SDS011;32291;52.010;4.446;2023-03-01T03:23:59;46.10;;;29.48;;
46563;SDS011;32291;52.010;4.446;2023-03-01T03:25:00;44.50;;;30.48;;
46563;SDS011;32291;52.010;4.446;2023-03-01T03:26:03;43.22;;;29.40;;
46563;SDS011;32291;52.010;4.446;2023-03-01T03:27:06;48.60;;;32.17;;
46563;SDS011;32291;52.010;4.446;2023-03-01T03:28:09;42.08;;;29.63;;
46563;SDS011;32291;52.010;4.446;2023-03-01T03:29:11;47.03;;;30.73;;
46563;SDS011;32291;52.010;4.446;2023-03-01T03:30:17;41.40;;;29.80;;
46563;SDS011;32291;52.010;4.446;2023-03-01T03:31:22;44.28;;;31.42;;
46563;SDS011;32291;52.010;4.446;2023-03-01T03:32:24;45.50;;;30.58;;
46563;SDS011;32291;52.010;4.446;2023-03-01T03:33:25;40.40;;;28.25;;
46563;SDS011;32291;52.010;4.446;2023-03-01T03:34:27;43.17;;;30.50;;
46563;SDS011;32291;52.010;4.446;2023-03-01T03:35:29;39.92;;;29.88;;
46563;SDS011;32291;52.010;4.446;2023-03-01T03:36:34;37.70;;;29.35;;
46563;SDS011;32291;52.010;4.446;2023-03-01T03:37:39;41.92;;;29.73;;
46563;SDS011;32291;52.010;4.446;2023-03-01T03:39:01;44.20;;;29.55;;
46563;SDS011;32291;52.010;4.446;2023-03-01T03:40:03;39.05;;;28.73;;
46563;SDS011;32291;52.010;4.446;2023-03-01T03:41:16;42.25;;;29.40;;
46563;SDS011;32291;52.010;4.446;2023-03-01T03:42:18;40.75;;;29.38;;
46563;SDS011;32291;52.010;4.446;2023-03-01T03:43:21;41.10;;;29.83;;
46563;SDS011;32291;52.010;4.446;2023-03-01T03:44:24;40.88;;;28.63;;
46563;SDS011;32291;52.010;4.446;2023-03-01T03:45:26;42.75;;;30.35;;
46563;SDS011;32291;52.010;4.446;2023-03-01T03:46:29;40.20;;;30.02;;
46563;SDS011;32291;52.010;4.446;2023-03-01T03:47:31;42.47;;;30.58;;
46563;SDS011;32291;52.010;4.446;2023-03-01T03:48:33;39.08;;;29.33;;
46563;SDS011;32291;52.010;4.446;2023-03-01T03:49:38;44.28;;;31.17;;
46563;SDS011;32291;52.010;4.446;2023-03-01T03:50:40;43.00;;;30.35;;
46563;SDS011;32291;52.010;4.446;2023-03-01T03:51:47;46.50;;;31.45;;
46563;SDS011;32291;52.010;4.446;2023-03-01T03:52:49;42.83;;;30.02;;
46563;SDS011;32291;52.010;4.446;2023-03-01T03:53:50;40.10;;;29.27;;
46563;SDS011;32291;52.010;4.446;2023-03-01T03:54:54;42.22;;;30.45;;
46563;SDS011;32291;52.010;4.446;2023-03-01T03:55:55;41.50;;;30.13;;
46563;SDS011;32291;52.010;4.446;2023-03-01T03:56:57;40.05;;;28.60;;
46563;SDS011;32291;52.010;4.446;2023-03-01T03:57:58;36.50;;;27.90;;
46563;SDS011;32291;52.010;4.446;2023-03-01T03:59:08;43.80;;;30.02;;
46563;SDS011;32291;52.010;4.446;2023-03-01T04:00:12;42.60;;;29.15;;
46563;SDS011;32291;52.010;4.446;2023-03-01T04:01:14;46.90;;;30.50;;
46563;SDS011;32291;52.010;4.446;2023-03-01T04:02:16;43.13;;;29.92;;
46563;SDS011;32291;52.010;4.446;2023-03-01T04:03:23;45.47;;;31.75;;
46563;SDS011;32291;52.010;4.446;2023-03-01T04:04:27;43.72;;;30.08;;
46563;SDS011;32291;52.010;4.446;2023-03-01T04:05:29;42.25;;;30.10;;
46563;SDS011;32291;52.010;4.446;2023-03-01T04:06:32;46.35;;;30.65;;
46563;SDS011;32291;52.010;4.446;2023-03-01T04:07:34;45.22;;;29.58;;
46563;SDS011;32291;52.010;4.446;2023-03-01T04:08:38;41.45;;;30.83;;
46563;SDS011;32291;52.010;4.446;2023-03-01T04:09:41;42.67;;;30.88;;
46563;SDS011;32291;52.010;4.446;2023-03-01T04:10:45;41.15;;;29.13;;
46563;SDS011;32291;52.010;4.446;2023-03-01T04:11:48;42.70;;;28.50;;
46563;SDS011;32291;52.010;4.446;2023-03-01T04:12:50;39.55;;;28.70;;
46563;SDS011;32291;52.010;4.446;2023-03-01T04:13:54;55.90;;;32.45;;
46563;SDS011;32291;52.010;4.446;2023-03-01T04:14:59;42.70;;;29.52;;
46563;SDS011;32291;52.010;4.446;2023-03-01T04:16:04;39.35;;;30.10;;
46563;SDS011;32291;52.010;4.446;2023-03-01T04:17:06;42.22;;;28.38;;
46563;SDS011;32291;52.010;4.446;2023-03-01T04:18:08;49.15;;;32.20;;
46563;SDS011;32291;52.010;4.446;2023-03-01T04:19:16;46.97;;;31.05;;
46563;SDS011;32291;52.010;4.446;2023-03-01T04:20:19;45.55;;;31.15;;
46563;SDS011;32291;52.010;4.446;2023-03-01T04:21:27;50.40;;;32.25;;
46563;SDS011;32291;52.010;4.446;2023-03-01T04:22:28;43.13;;;32.03;;
46563;SDS011;32291;52.010;4.446;2023-03-01T04:23:30;45.80;;;31.88;;
46563;SDS011;32291;52.010;4.446;2023-03-01T04:24:33;44.13;;;31.45;;
46563;SDS011;32291;52.010;4.446;2023-03-01T04:25:35;47.42;;;32.47;;
46563;SDS011;32291;52.010;4.446;2023-03-01T04:26:54;46.45;;;32.28;;
46563;SDS011;32291;52.010;4.446;2023-03-01T04:27:56;41.38;;;30.70;;
46563;SDS011;32291;52.010;4.446;2023-03-01T04:28:57;46.80;;;32.05;;
46563;SDS011;32291;52.010;4.446;2023-03-01T04:29:59;42.78;;;31.33;;
46563;SDS011;32291;52.010;4.446;2023-03-01T04:31:06;44.35;;;31.17;;
46563;SDS011;32291;52.010;4.446;2023-03-01T04:32:13;45.60;;;31.48;;
46563;SDS011;32291;52.010;4.446;2023-03-01T04:33:17;51.67;;;32.60;;
46563;SDS011;32291;52.010;4.446;2023-03-01T04:34:19;44.92;;;31.50;;
46563;SDS011;32291;52.010;4.446;2023-03-01T04:35:21;45.15;;;32.05;;
46563;SDS011;32291;52.010;4.446;2023-03-01T04:36:23;45.33;;;32.38;;
46563;SDS011;32291;52.010;4.446;2023-03-01T04:37:28;40.92;;;29.70;;
46563;SDS011;32291;52.010;4.446;2023-03-01T04:38:30;41.15;;;29.52;;
46563;SDS011;32291;52.010;4.446;2023-03-01T04:39:33;48.13;;;32.15;;
46563;SDS011;32291;52.010;4.446;2023-03-01T04:40:34;49.30;;;32.45;;
46563;SDS011;32291;52.010;4.446;2023-03-01T04:41:37;50.97;;;35.38;;
46563;SDS011;32291;52.010;4.446;2023-03-01T04:42:40;43.58;;;30.88;;
46563;SDS011;32291;52.010;4.446;2023-03-01T04:43:43;44.60;;;32.00;;
46563;SDS011;32291;52.010;4.446;2023-03-01T04:44:44;44.13;;;31.95;;
46563;SDS011;32291;52.010;4.446;2023-03-01T04:45:46;45.38;;;32.38;;
46563;SDS011;32291;52.010;4.446;2023-03-01T04:46:49;43.28;;;31.05;;
46563;SDS011;32291;52.010;4.446;2023-03-01T04:47:50;44.50;;;32.53;;
46563;SDS011;32291;52.010;4.446;2023-03-01T04:48:55;44.90;;;31.13;;
46563;SDS011;32291;52.010;4.446;2023-03-01T04:49:56;46.85;;;32.15;;
46563;SDS011;32291;52.010;4.446;2023-03-01T04:50:59;47.42;;;31.90;;
46563;SDS011;32291;52.010;4.446;2023-03-01T04:52:01;46.45;;;31.77;;
46563;SDS011;32291;52.010;4.446;2023-03-01T04:53:04;47.30;;;32.22;;
46563;SDS011;32291;52.010;4.446;2023-03-01T04:54:06;45.10;;;32.15;;
46563;SDS011;32291;52.010;4.446;2023-03-01T04:55:09;47.40;;;32.63;;
46563;SDS011;32291;52.010;4.446;2023-03-01T04:56:12;44.05;;;31.92;;
46563;SDS011;32291;52.010;4.446;2023-03-01T04:57:15;47.17;;;31.35;;
46563;SDS011;32291;52.010;4.446;2023-03-01T04:58:17;49.00;;;33.92;;
46563;SDS011;32291;52.010;4.446;2023-03-01T04:59:18;46.42;;;32.72;;
46563;SDS011;32291;52.010;4.446;2023-03-01T05:00:23;48.42;;;33.10;;
46563;SDS011;32291;52.010;4.446;2023-03-01T05:01:24;73.10;;;35.53;;
46563;SDS011;32291;52.010;4.446;2023-03-01T05:02:26;62.20;;;34.75;;
46563;SDS011;32291;52.010;4.446;2023-03-01T05:03:28;73.25;;;36.92;;
46563;SDS011;32291;52.010;4.446;2023-03-01T05:04:30;108.22;;;39.15;;
46563;SDS011;32291;52.010;4.446;2023-03-01T05:05:33;95.72;;;36.85;;
46563;SDS011;32291;52.010;4.446;2023-03-01T05:06:39;57.55;;;35.83;;
46563;SDS011;32291;52.010;4.446;2023-03-01T05:07:41;133.48;;;41.35;;
46563;SDS011;32291;52.010;4.446;2023-03-01T05:08:43;95.90;;;40.08;;
46563;SDS011;32291;52.010;4.446;2023-03-01T05:09:45;90.55;;;40.38;;
46563;SDS011;32291;52.010;4.446;2023-03-01T05:10:51;122.47;;;40.65;;
46563;SDS011;32291;52.010;4.446;2023-03-01T05:11:54;89.93;;;36.85;;
46563;SDS011;32291;52.010;4.446;2023-03-01T05:12:55;88.97;;;37.33;;
46563;SDS011;32291;52.010;4.446;2023-03-01T05:13:58;92.30;;;37.35;;
46563;SDS011;32291;52.010;4.446;2023-03-01T05:15:00;80.50;;;37.42;;
46563;SDS011;32291;52.010;4.446;2023-03-01T05:16:08;61.20;;;33.53;;
46563;SDS011;32291;52.010;4.446;2023-03-01T05:17:11;116.78;;;39.35;;
46563;SDS011;32291;52.010;4.446;2023-03-01T05:18:13;93.88;;;39.25;;
46563;SDS011;32291;52.010;4.446;2023-03-01T05:19:15;83.00;;;38.55;;
46563;SDS011;32291;52.010;4.446;2023-03-01T05:20:17;53.80;;;34.10;;
46563;SDS011;32291;52.010;4.446;2023-03-01T05:21:24;64.32;;;35.53;;
46563;SDS011;32291;52.010;4.446;2023-03-01T05:22:26;83.22;;;36.33;;
46563;SDS011;32291;52.010;4.446;2023-03-01T05:23:28;61.58;;;35.65;;
46563;SDS011;32291;52.010;4.446;2023-03-01T05:24:31;99.47;;;36.10;;
46563;SDS011;32291;52.010;4.446;2023-03-01T05:25:35;70.97;;;37.63;;
46563;SDS011;32291;52.010;4.446;2023-03-01T05:26:41;76.40;;;35.63;;
46563;SDS011;32291;52.010;4.446;2023-03-01T05:27:42;64.60;;;34.70;;
46563;SDS011;32291;52.010;4.446;2023-03-01T05:28:44;69.90;;;33.60;;
46563;SDS011;32291;52.010;4.446;2023-03-01T05:29:46;65.80;;;35.42;;
46563;SDS011;32291;52.010;4.446;2023-03-01T05:30:47;99.38;;;36.13;;
46563;SDS011;32291;52.010;4.446;2023-03-01T05:31:53;77.57;;;35.00;;
46563;SDS011;32291;52.010;4.446;2023-03-01T05:32:56;108.00;;;36.92;;
46563;SDS011;32291;52.010;4.446;2023-03-01T05:33:58;65.78;;;33.40;;
46563;SDS011;32291;52.010;4.446;2023-03-01T05:35:00;97.13;;;34.88;;
46563;SDS011;32291;52.010;4.446;2023-03-01T05:36:01;105.18;;;35.97;;
46563;SDS011;32291;52.010;4.446;2023-03-01T05:37:03;63.30;;;34.20;;
46563;SDS011;32291;52.010;4.446;2023-03-01T05:38:06;57.88;;;32.92;;
46563;SDS011;32291;52.010;4.446;2023-03-01T05:39:08;59.33;;;33.80;;
46563;SDS011;32291;52.010;4.446;2023-03-01T05:40:11;60.10;;;34.17;;
46563;SDS011;32291;52.010;4.446;2023-03-01T05:41:19;57.78;;;35.13;;
46563;SDS011;32291;52.010;4.446;2023-03-01T05:42:21;65.22;;;35.65;;
46563;SDS011;32291;52.010;4.446;2023-03-01T05:43:23;52.80;;;34.42;;
46563;SDS011;32291;52.010;4.446;2023-03-01T05:44:25;59.03;;;34.50;;
46563;SDS011;32291;52.010;4.446;2023-03-01T05:45:29;51.70;;;32.25;;
46563;SDS011;32291;52.010;4.446;2023-03-01T05:46:30;52.78;;;31.25;;
46563;SDS011;32291;52.010;4.446;2023-03-01T05:47:32;49.35;;;32.53;;
46563;SDS011;32291;52.010;4.446;2023-03-01T05:48:34;52.45;;;31.15;;
46563;SDS011;32291;52.010;4.446;2023-03-01T05:49:36;52.55;;;34.08;;
46563;SDS011;32291;52.010;4.446;2023-03-01T05:50:39;50.85;;;32.63;;
46563;SDS011;32291;52.010;4.446;2023-03-01T05:51:47;59.03;;;32.53;;
46563;SDS011;32291;52.010;4.446;2023-03-01T05:52:52;56.60;;;32.42;;
46563;SDS011;32291;52.010;4.446;2023-03-01T05:54:03;45.80;;;31.40;;
46563;SDS011;32291;52.010;4.446;2023-03-01T05:55:07;50.20;;;33.28;;
46563;SDS011;32291;52.010;4.446;2023-03-01T05:56:09;58.22;;;32.55;;
46563;SDS011;32291;52.010;4.446;2023-03-01T05:57:11;57.00;;;32.47;;
46563;SDS011;32291;52.010;4.446;2023-03-01T05:58:14;49.40;;;32.55;;
46563;SDS011;32291;52.010;4.446;2023-03-01T05:59:19;53.50;;;32.90;;
46563;SDS011;32291;52.010;4.446;2023-03-01T06:00:20;52.15;;;35.20;;
46563;SDS011;32291;52.010;4.446;2023-03-01T06:01:25;49.60;;;33.33;;
46563;SDS011;32291;52.010;4.446;2023-03-01T06:02:27;49.33;;;32.95;;
46563;SDS011;32291;52.010;4.446;2023-03-01T06:03:30;52.72;;;35.00;;
46563;SDS011;32291;52.010;4.446;2023-03-01T06:04:32;48.05;;;33.67;;
46563;SDS011;32291;52.010;4.446;2023-03-01T06:05:33;50.42;;;34.35;;
46563;SDS011;32291;52.010;4.446;2023-03-01T06:06:36;54.35;;;34.17;;
46563;SDS011;32291;52.010;4.446;2023-03-01T06:07:38;55.22;;;35.13;;
46563;SDS011;32291;52.010;4.446;2023-03-01T06:08:40;50.53;;;34.92;;
46563;SDS011;32291;52.010;4.446;2023-03-01T06:09:41;50.53;;;33.30;;
46563;SDS011;32291;52.010;4.446;2023-03-01T06:10:43;50.35;;;34.95;;
46563;SDS011;32291;52.010;4.446;2023-03-01T06:11:45;52.97;;;34.58;;
46563;SDS011;32291;52.010;4.446;2023-03-01T06:12:47;49.53;;;32.88;;
46563;SDS011;32291;52.010;4.446;2023-03-01T06:13:49;51.50;;;33.75;;
46563;SDS011;32291;52.010;4.446;2023-03-01T06:14:51;51.50;;;34.33;;
46563;SDS011;32291;52.010;4.446;2023-03-01T06:15:52;50.45;;;33.70;;
46563;SDS011;32291;52.010;4.446;2023-03-01T06:16:54;45.80;;;33.22;;
46563;SDS011;32291;52.010;4.446;2023-03-01T06:17:56;49.65;;;32.72;;
46563;SDS011;32291;52.010;4.446;2023-03-01T06:19:00;51.67;;;34.40;;
46563;SDS011;32291;52.010;4.446;2023-03-01T06:20:02;46.42;;;32.38;;